createdAt,value
2018-12-26T00:01:15.506Z,3.00
2018-12-26T00:03:45.303Z,3.05
2018-12-26T00:06:15.014Z,3.72
2018-12-26T00:08:44.517Z,3.72
2018-12-26T00:11:14.238Z,4.45
2018-12-26T00:13:43.936Z,4.20
2018-12-26T00:16:13.439Z,3.65
2018-12-26T00:18:42.962Z,3.83
2018-12-26T00:21:12.859Z,4.03
2018-12-26T00:23:42.364Z,2.87
2018-12-26T00:26:11.971Z,3.90
2018-12-26T00:28:41.673Z,3.45
2018-12-26T00:31:11.289Z,3.08
2018-12-26T00:33:40.795Z,4.40
2018-12-26T00:36:10.680Z,3.45
2018-12-26T00:38:40.235Z,3.70
2018-12-26T00:41:09.716Z,4.35
2018-12-26T00:43:39.633Z,2.55
2018-12-26T00:46:09.341Z,3.30
2018-12-26T00:48:40.584Z,4.20
2018-12-26T00:51:10.105Z,3.60
2018-12-26T00:53:39.695Z,4.78
2018-12-26T00:56:10.629Z,3.85
2018-12-26T00:58:40.346Z,5.30
2018-12-26T01:01:09.848Z,4.10
2018-12-26T01:03:39.352Z,4.62
2018-12-26T01:06:08.858Z,4.17
2018-12-26T01:08:38.261Z,4.60
2018-12-26T01:11:07.973Z,4.10
2018-12-26T01:13:37.373Z,4.85
2018-12-26T01:16:06.748Z,4.58
2018-12-26T01:18:36.278Z,4.45
2018-12-26T01:21:05.783Z,3.58
2018-12-26T01:23:35.286Z,4.85
2018-12-26T01:26:04.792Z,4.20
2018-12-26T01:28:34.194Z,4.40
2018-12-26T01:31:04.085Z,4.50
2018-12-26T01:33:33.715Z,5.85
2018-12-26T01:36:03.194Z,4.70
2018-12-26T01:38:32.724Z,4.25
2018-12-26T01:41:02.130Z,5.15
2018-12-26T01:43:31.633Z,4.80
2018-12-26T01:46:01.139Z,4.85
2018-12-26T01:48:30.669Z,5.20
2018-12-26T01:51:00.145Z,4.03
2018-12-26T01:53:29.653Z,4.40
2018-12-26T01:55:59.256Z,4.53
2018-12-26T01:58:28.761Z,4.42
2018-12-26T02:00:58.268Z,4.00
2018-12-26T02:03:27.977Z,5.47
2018-12-26T02:05:57.587Z,5.80
2018-12-26T02:08:27.190Z,4.20
2018-12-26T02:10:56.796Z,4.85
2018-12-26T02:13:26.302Z,5.30
2018-12-26T02:15:55.774Z,4.83
2018-12-26T02:18:28.418Z,4.50
2018-12-26T02:20:59.013Z,4.62
2018-12-26T02:23:28.722Z,4.72
2018-12-26T02:25:58.432Z,4.35
2018-12-26T02:28:27.940Z,4.25
2018-12-26T02:30:57.546Z,3.80
2018-12-26T02:33:27.182Z,5.62
2018-12-26T02:35:56.663Z,4.95
2018-12-26T02:38:26.474Z,5.03
2018-12-26T02:40:56.081Z,4.75
2018-12-26T02:43:25.686Z,5.65
2018-12-26T02:45:55.494Z,5.40
2018-12-26T02:48:25.102Z,4.17
2018-12-26T02:50:54.709Z,5.42
2018-12-26T02:53:24.227Z,6.22
2018-12-26T02:55:54.816Z,7.42
2018-12-26T02:58:24.561Z,5.00
2018-12-26T03:00:54.179Z,5.67
2018-12-26T03:03:23.664Z,5.30
2018-12-26T03:05:53.174Z,5.37
2018-12-26T03:08:22.571Z,5.87
2018-12-26T03:10:52.077Z,6.03
2018-12-26T03:13:23.115Z,5.87
2018-12-26T03:15:52.723Z,6.17
2018-12-26T03:18:22.127Z,6.62
2018-12-26T03:20:51.937Z,6.67
2018-12-26T03:23:22.954Z,6.15
2018-12-26T03:25:52.483Z,6.35
2018-12-26T03:28:21.889Z,7.17
2018-12-26T03:30:51.392Z,5.78
2018-12-26T03:33:20.902Z,6.50
2018-12-26T03:35:50.590Z,6.55
2018-12-26T03:38:20.210Z,7.40
2018-12-26T03:40:50.101Z,9.23
2018-12-26T03:43:19.949Z,8.58
2018-12-26T03:45:49.851Z,9.10
2018-12-26T03:48:20.131Z,10.43
2018-12-26T03:50:49.679Z,11.25
2018-12-26T03:53:20.621Z,10.75
2018-12-26T03:55:50.451Z,11.48
2018-12-26T03:58:20.037Z,11.05
2018-12-26T04:00:49.543Z,11.90
2018-12-26T04:03:19.050Z,13.13
2018-12-26T04:05:48.857Z,13.95
2018-12-26T04:08:18.680Z,13.80
2018-12-26T04:10:48.216Z,15.28
2018-12-26T04:13:17.984Z,13.35
2018-12-26T04:15:47.668Z,16.17
2018-12-26T04:18:17.305Z,16.82
2018-12-26T04:20:47.018Z,15.45
2018-12-26T04:23:16.415Z,16.60
2018-12-26T04:25:45.987Z,16.42
2018-12-26T04:28:15.423Z,15.45
2018-12-26T04:30:45.029Z,15.25
2018-12-26T04:33:15.456Z,17.35
2018-12-26T04:35:45.039Z,17.42
2018-12-26T04:38:14.670Z,16.32
2018-12-26T04:40:44.179Z,17.17
2018-12-26T04:43:13.887Z,16.73
2018-12-26T04:45:43.392Z,18.27
2018-12-26T04:48:12.911Z,16.97
2018-12-26T04:50:42.502Z,17.20
2018-12-26T04:53:12.005Z,15.60
2018-12-26T04:55:41.511Z,15.58
2018-12-26T04:58:11.014Z,18.37
2018-12-26T05:00:40.519Z,15.93
2018-12-26T05:03:09.921Z,15.50
2018-12-26T05:05:39.426Z,17.42
2018-12-26T05:08:09.035Z,17.23
2018-12-26T05:10:38.537Z,14.10
2018-12-26T05:13:08.046Z,16.65
2018-12-26T05:15:37.752Z,17.40
2018-12-26T05:18:07.261Z,17.35
2018-12-26T05:20:37.277Z,15.10
2018-12-26T05:23:06.988Z,19.27
2018-12-26T05:25:37.004Z,17.07
2018-12-26T05:28:07.022Z,14.80
2018-12-26T05:30:36.620Z,17.55
2018-12-26T05:33:06.129Z,16.45
2018-12-26T05:35:35.632Z,17.20
2018-12-26T05:38:05.137Z,17.80
2018-12-26T05:40:34.640Z,17.75
2018-12-26T05:43:04.143Z,18.67
2018-12-26T05:45:34.064Z,16.42
2018-12-26T05:48:03.460Z,15.30
2018-12-26T05:50:32.965Z,18.40
2018-12-26T05:53:02.472Z,17.52
2018-12-26T05:55:32.182Z,18.90
2018-12-26T05:58:02.710Z,16.85
2018-12-26T06:00:32.215Z,17.32
2018-12-26T06:03:01.589Z,19.00
2018-12-26T06:05:31.119Z,17.45
2018-12-26T06:08:00.628Z,19.15
2018-12-26T06:10:30.026Z,18.52
2018-12-26T06:12:59.533Z,19.12
2018-12-26T06:15:29.240Z,16.40
2018-12-26T06:17:58.744Z,18.00
2018-12-26T06:20:28.146Z,18.40
2018-12-26T06:22:57.652Z,20.65
2018-12-26T06:25:27.268Z,22.20
2018-12-26T06:27:56.764Z,19.40
2018-12-26T06:30:26.268Z,19.37
2018-12-26T06:32:55.773Z,19.48
2018-12-26T06:35:25.561Z,18.70
2018-12-26T06:37:55.090Z,17.82
2018-12-26T06:40:24.592Z,19.07
2018-12-26T06:42:54.099Z,18.48
2018-12-26T06:45:23.502Z,21.82
2018-12-26T06:47:53.005Z,18.05
2018-12-26T06:50:22.613Z,20.10
2018-12-26T06:52:52.116Z,18.90
2018-12-26T06:55:21.624Z,20.68
2018-12-26T06:57:51.127Z,18.80
2018-12-26T07:00:20.653Z,16.62
2018-12-26T07:02:50.137Z,18.65
2018-12-26T07:05:19.640Z,17.60
2018-12-26T07:07:49.045Z,18.42
2018-12-26T07:10:18.651Z,17.98
2018-12-26T07:12:48.564Z,17.12
2018-12-26T07:15:18.172Z,18.90
2018-12-26T07:17:47.678Z,17.77
2018-12-26T07:20:17.078Z,16.70
2018-12-26T07:22:46.480Z,15.98
2018-12-26T07:25:15.884Z,18.70
2018-12-26T07:27:45.421Z,17.80
2018-12-26T07:30:14.894Z,17.77
2018-12-26T07:32:44.605Z,18.23
2018-12-26T07:35:14.004Z,17.85
2018-12-26T07:37:43.409Z,17.55
2018-12-26T07:40:13.014Z,18.35
2018-12-26T07:42:43.310Z,16.50
2018-12-26T07:45:12.945Z,18.37
2018-12-26T07:47:42.450Z,19.40
2018-12-26T07:50:12.159Z,19.50
2018-12-26T07:52:41.572Z,17.95
2018-12-26T07:55:11.359Z,19.65
2018-12-26T07:57:40.878Z,21.35
2018-12-26T08:00:10.574Z,20.32
2018-12-26T08:02:40.195Z,17.42
2018-12-26T08:05:09.569Z,17.95
2018-12-26T08:07:39.107Z,18.65
2018-12-26T08:10:08.913Z,18.27
2018-12-26T08:12:38.628Z,17.98
2018-12-26T08:15:10.792Z,17.70
2018-12-26T08:17:39.322Z,17.40
2018-12-26T08:20:09.167Z,19.27
2018-12-26T08:22:38.788Z,17.77
2018-12-26T08:25:08.295Z,17.52
2018-12-26T08:27:37.797Z,17.00
2018-12-26T08:30:07.637Z,17.90
2018-12-26T08:32:37.217Z,18.05
2018-12-26T08:35:09.077Z,16.57
2018-12-26T08:37:38.762Z,16.85
2018-12-26T08:40:08.393Z,16.45
2018-12-26T08:42:37.900Z,17.07
2018-12-26T08:45:07.608Z,18.02
2018-12-26T08:47:37.188Z,14.90
2018-12-26T08:50:07.878Z,15.20
2018-12-26T08:52:37.658Z,18.60
2018-12-26T08:55:07.375Z,17.02
2018-12-26T08:57:37.085Z,15.13
2018-12-26T09:00:07.800Z,16.85
2018-12-26T09:02:37.317Z,16.15
2018-12-26T09:05:09.076Z,16.32
2018-12-26T09:07:38.577Z,17.92
2018-12-26T09:10:09.274Z,16.55
2018-12-26T09:12:39.940Z,18.00
2018-12-26T09:15:18.864Z,15.15
2018-12-26T09:17:51.134Z,17.60
2018-12-26T09:20:20.638Z,15.35
2018-12-26T09:22:50.581Z,16.48
2018-12-26T09:25:20.059Z,15.80
2018-12-26T09:27:50.192Z,16.48
2018-12-26T09:30:19.988Z,16.15
2018-12-26T09:32:50.016Z,14.25
2018-12-26T09:35:20.949Z,15.05
2018-12-26T09:37:51.832Z,13.90
2018-12-26T09:40:21.694Z,13.98
2018-12-26T09:42:51.176Z,14.40
2018-12-26T09:45:20.808Z,13.53
2018-12-26T09:47:50.514Z,12.37
2018-12-26T09:50:20.202Z,13.05
2018-12-26T09:52:49.728Z,11.75
2018-12-26T09:55:19.342Z,11.93
2018-12-26T09:57:49.044Z,12.30
2018-12-26T10:00:18.550Z,10.70
2018-12-26T10:02:48.054Z,11.73
2018-12-26T10:05:17.561Z,10.28
2018-12-26T10:07:47.167Z,10.80
2018-12-26T10:10:16.670Z,10.65
2018-12-26T10:12:46.175Z,9.58
2018-12-26T10:15:16.365Z,10.20
2018-12-26T10:17:46.083Z,10.70
2018-12-26T10:20:15.843Z,11.90
2018-12-26T10:22:45.426Z,11.20
2018-12-26T10:25:15.309Z,11.03
2018-12-26T10:27:44.944Z,10.55
2018-12-26T10:30:14.569Z,9.30
2018-12-26T10:32:44.026Z,9.98
2018-12-26T10:35:13.784Z,8.95
2018-12-26T10:37:43.372Z,9.50
2018-12-26T10:40:12.877Z,9.23
2018-12-26T10:42:42.382Z,9.30
2018-12-26T10:45:11.888Z,9.40
2018-12-26T10:47:41.493Z,9.40
2018-12-26T10:50:11.926Z,9.35
2018-12-26T10:52:41.734Z,10.00
2018-12-26T10:55:11.238Z,11.60
2018-12-26T10:57:41.155Z,9.30
2018-12-26T11:00:13.219Z,11.08
2018-12-26T11:02:42.825Z,9.98
2018-12-26T11:05:12.224Z,10.10
2018-12-26T11:07:41.820Z,10.65
2018-12-26T11:10:11.341Z,10.93
2018-12-26T11:12:41.507Z,10.13
2018-12-26T11:15:11.443Z,9.43
2018-12-26T11:17:41.288Z,9.40
2018-12-26T11:20:13.487Z,10.65
2018-12-26T11:22:43.270Z,11.33
2018-12-26T11:25:12.988Z,12.00
2018-12-26T11:27:42.661Z,15.25
2018-12-26T11:30:13.628Z,15.08
2018-12-26T11:32:43.852Z,14.25
2018-12-26T11:35:13.658Z,13.88
2018-12-26T11:37:43.573Z,13.08
2018-12-26T11:40:13.206Z,12.07
2018-12-26T11:42:42.686Z,11.10
2018-12-26T11:45:12.190Z,10.85
2018-12-26T11:47:42.709Z,12.80
2018-12-26T11:50:12.224Z,12.45
2018-12-26T11:52:41.729Z,11.55
2018-12-26T11:55:10.516Z,12.35
2018-12-26T11:57:40.285Z,10.82
2018-12-26T12:00:09.937Z,12.20
2018-12-26T12:02:39.850Z,12.45
2018-12-26T12:05:09.459Z,11.75
2018-12-26T12:07:39.472Z,11.20
2018-12-26T12:10:08.876Z,11.20
2018-12-26T12:12:38.585Z,12.10
2018-12-26T12:15:09.013Z,12.35
2018-12-26T12:17:40.236Z,14.83
2018-12-26T12:20:10.938Z,13.45
2018-12-26T12:22:40.507Z,12.73
2018-12-26T12:25:10.127Z,12.05
2018-12-26T12:27:39.722Z,13.50
2018-12-26T12:30:10.357Z,10.78
2018-12-26T12:32:40.169Z,10.90
2018-12-26T12:35:10.812Z,13.25
2018-12-26T12:37:40.818Z,11.90
2018-12-26T12:40:11.913Z,10.70
2018-12-26T12:42:41.374Z,12.10
2018-12-26T12:45:11.182Z,11.57
2018-12-26T12:47:41.098Z,13.58
2018-12-26T12:50:10.702Z,12.58
2018-12-26T12:52:40.287Z,12.68
2018-12-26T12:55:09.822Z,14.25
2018-12-26T12:57:39.424Z,12.80
2018-12-26T13:00:09.542Z,12.63
2018-12-26T13:02:39.680Z,11.48
2018-12-26T13:05:09.167Z,13.48
2018-12-26T13:07:38.774Z,14.63
2018-12-26T13:10:08.461Z,14.53
2018-12-26T13:12:38.089Z,15.40
2018-12-26T13:15:07.595Z,14.87
2018-12-26T13:17:37.199Z,15.13
2018-12-26T13:20:08.343Z,14.65
2018-12-26T13:22:37.851Z,15.78
2018-12-26T13:25:07.777Z,15.58
2018-12-26T13:27:37.370Z,15.43
2018-12-26T13:30:08.640Z,18.45
2018-12-26T13:32:38.427Z,15.28
2018-12-26T13:35:08.032Z,15.15
2018-12-26T13:37:43.928Z,15.90
2018-12-26T13:40:13.802Z,15.38
2018-12-26T13:42:43.522Z,14.38
2018-12-26T13:45:13.016Z,15.45
2018-12-26T13:47:42.523Z,13.70
2018-12-26T13:50:12.111Z,16.50
2018-12-26T13:52:41.834Z,15.65
2018-12-26T13:55:11.406Z,15.58
2018-12-26T13:57:41.050Z,14.95
2018-12-26T14:00:11.680Z,17.32
2018-12-26T14:02:41.393Z,19.80
2018-12-26T14:05:12.532Z,16.10
2018-12-26T14:07:43.961Z,16.95
2018-12-26T14:10:13.566Z,16.42
2018-12-26T14:12:43.709Z,17.90
2018-12-26T14:15:13.309Z,15.58
2018-12-26T14:17:43.026Z,15.65
2018-12-26T14:20:12.608Z,15.20
2018-12-26T14:22:42.034Z,14.20
2018-12-26T14:25:11.784Z,15.38
2018-12-26T14:27:41.371Z,15.18
2018-12-26T14:30:11.634Z,16.67
2018-12-26T14:32:41.388Z,18.48
2018-12-26T14:35:10.787Z,16.60
2018-12-26T14:37:40.602Z,15.32
2018-12-26T14:40:10.108Z,16.32
2018-12-26T14:42:39.711Z,17.50
2018-12-26T14:45:09.311Z,14.35
2018-12-26T14:47:38.823Z,16.02
2018-12-26T14:50:08.735Z,15.63
2018-12-26T14:52:38.461Z,16.37
2018-12-26T14:55:08.053Z,17.23
2018-12-26T14:57:37.659Z,16.48
2018-12-26T15:00:08.085Z,16.17
2018-12-26T15:02:37.590Z,16.12
2018-12-26T15:05:07.402Z,15.48
2018-12-26T15:07:37.009Z,16.45
2018-12-26T15:10:06.889Z,18.00
2018-12-26T15:12:36.504Z,19.12
2018-12-26T15:15:06.898Z,16.37
2018-12-26T15:17:36.459Z,16.90
2018-12-26T15:20:06.510Z,17.17
2018-12-26T15:22:36.394Z,18.55
2018-12-26T15:25:05.898Z,20.75
2018-12-26T15:27:35.401Z,20.37
2018-12-26T15:30:05.146Z,19.07
2018-12-26T15:32:34.820Z,16.75
2018-12-26T15:35:04.333Z,14.38
2018-12-26T15:37:33.831Z,16.57
2018-12-26T15:40:03.547Z,17.52
2018-12-26T15:42:33.173Z,20.10
2018-12-26T15:45:02.759Z,16.32
2018-12-26T15:47:32.360Z,20.27
2018-12-26T15:50:01.867Z,16.55
2018-12-26T15:52:31.474Z,16.45
2018-12-26T15:55:01.545Z,16.10
2018-12-26T15:57:31.098Z,14.40
2018-12-26T16:00:01.011Z,15.90
2018-12-26T16:02:30.620Z,17.87
2018-12-26T16:05:00.021Z,17.40
2018-12-26T16:07:29.526Z,15.28
2018-12-26T16:09:58.931Z,17.80
2018-12-26T16:12:28.433Z,18.92
2018-12-26T16:14:57.943Z,17.75
2018-12-26T16:17:27.443Z,16.95
2018-12-26T16:19:56.946Z,14.13
2018-12-26T16:22:26.448Z,15.00
2018-12-26T16:24:55.953Z,15.50
2018-12-26T16:27:25.463Z,13.53
2018-12-26T16:29:54.962Z,14.45
2018-12-26T16:32:24.365Z,15.15
2018-12-26T16:34:53.976Z,16.40
2018-12-26T16:37:23.374Z,18.85
2018-12-26T16:39:52.981Z,15.68
2018-12-26T16:42:22.485Z,17.37
2018-12-26T16:44:52.096Z,16.82
2018-12-26T16:47:21.597Z,15.55
2018-12-26T16:49:51.103Z,21.00
2018-12-26T16:52:20.606Z,16.17
2018-12-26T16:54:50.115Z,17.30
2018-12-26T16:57:19.696Z,14.65
2018-12-26T16:59:49.222Z,17.73
2018-12-26T17:02:18.750Z,18.32
2018-12-26T17:04:48.335Z,17.80
2018-12-26T17:07:18.352Z,15.68
2018-12-26T17:09:47.855Z,19.30
2018-12-26T17:12:17.257Z,17.70
2018-12-26T17:14:46.636Z,18.35
2018-12-26T17:17:16.167Z,18.00
2018-12-26T17:19:45.873Z,19.65
2018-12-26T17:22:15.377Z,17.85
2018-12-26T17:24:45.190Z,24.47
2018-12-26T17:27:15.010Z,25.75
2018-12-26T17:29:44.507Z,24.75
2018-12-26T17:32:13.910Z,13.60
2018-12-26T17:34:43.413Z,22.10
2018-12-26T17:37:13.043Z,14.73
2018-12-26T17:39:42.937Z,16.17
2018-12-26T17:42:12.720Z,19.05
2018-12-26T17:44:42.253Z,19.37
2018-12-26T17:47:11.659Z,21.90
2018-12-26T17:49:41.260Z,13.00
2018-12-26T17:52:10.764Z,18.35
2018-12-26T17:55:20.106Z,17.52
2018-12-26T17:57:51.882Z,16.30
2018-12-26T18:00:58.715Z,23.07
2018-12-26T18:03:28.249Z,17.82
2018-12-26T18:05:57.750Z,15.55
2018-12-26T18:08:27.562Z,16.32
2018-12-26T18:10:57.170Z,18.25
2018-12-26T18:13:26.673Z,18.37
2018-12-26T18:15:56.179Z,19.85
2018-12-26T18:18:25.682Z,16.12
2018-12-26T18:20:55.188Z,20.17
2018-12-26T18:23:24.915Z,16.15
2018-12-26T18:25:54.402Z,19.07
2018-12-26T18:28:23.989Z,17.10
2018-12-26T18:30:53.513Z,17.55
2018-12-26T18:33:23.019Z,18.07
2018-12-26T18:35:52.522Z,22.10
2018-12-26T18:38:22.130Z,19.75
2018-12-26T18:40:51.634Z,31.42
2018-12-26T18:43:21.246Z,26.33
2018-12-26T18:45:50.746Z,21.77
2018-12-26T18:48:20.354Z,29.70
2018-12-26T18:50:49.858Z,47.43
2018-12-26T18:53:19.363Z,32.85
2018-12-26T18:55:48.970Z,26.55
2018-12-26T18:58:18.578Z,34.38
2018-12-26T19:00:48.184Z,29.42
2018-12-26T19:03:17.689Z,32.55
2018-12-26T19:05:47.510Z,30.65
2018-12-26T19:08:17.004Z,28.07
2018-12-26T19:10:46.715Z,28.87
2018-12-26T19:13:16.220Z,26.93
2018-12-26T19:15:45.827Z,29.40
2018-12-26T19:18:15.330Z,32.67
2018-12-26T19:20:44.838Z,27.22
2018-12-26T19:23:14.341Z,25.82
2018-12-26T19:25:43.847Z,27.58
2018-12-26T19:28:13.350Z,31.80
2018-12-26T19:30:42.861Z,34.80
2018-12-26T19:33:12.358Z,29.07
2018-12-26T19:35:41.863Z,32.60
2018-12-26T19:38:11.468Z,29.98
2018-12-26T19:40:41.179Z,28.70
2018-12-26T19:43:10.811Z,28.30
2018-12-26T19:45:40.399Z,30.25
2018-12-26T19:48:09.797Z,29.80
2018-12-26T19:50:39.373Z,30.00
2018-12-26T19:53:08.805Z,29.37
2018-12-26T19:55:38.415Z,32.48
2018-12-26T19:58:07.918Z,30.10
2018-12-26T20:00:37.426Z,30.17
2018-12-26T20:03:06.926Z,29.98
2018-12-26T20:05:36.728Z,30.57
2018-12-26T20:08:06.420Z,32.40
2018-12-26T20:10:35.952Z,31.93
2018-12-26T20:13:06.994Z,29.87
2018-12-26T20:15:36.600Z,30.43
2018-12-26T20:18:06.208Z,34.70
2018-12-26T20:20:36.122Z,34.27
2018-12-26T20:23:05.627Z,36.63
2018-12-26T20:25:35.129Z,33.90
2018-12-26T20:28:04.839Z,33.58
2018-12-26T20:30:34.345Z,36.88
2018-12-26T20:33:03.850Z,36.60
2018-12-26T20:35:33.457Z,34.48
2018-12-26T20:38:02.961Z,30.15
2018-12-26T20:40:32.569Z,32.85
2018-12-26T20:43:02.379Z,34.70
2018-12-26T20:45:31.883Z,33.70
2018-12-26T20:48:01.492Z,38.73
2018-12-26T20:50:31.099Z,34.92
2018-12-26T20:53:01.012Z,34.98
2018-12-26T20:55:30.523Z,33.73
2018-12-26T20:58:00.021Z,34.35
2018-12-26T21:00:29.632Z,37.40
2018-12-26T21:02:59.164Z,38.55
2018-12-26T21:05:28.743Z,34.55
2018-12-26T21:07:58.318Z,35.43
2018-12-26T21:10:27.748Z,37.03
2018-12-26T21:12:57.154Z,34.30
2018-12-26T21:15:26.658Z,35.48
2018-12-26T21:17:58.041Z,31.00
2018-12-26T21:20:27.609Z,35.85
2018-12-26T21:22:57.216Z,35.63
2018-12-26T21:25:26.833Z,34.43
2018-12-26T21:27:57.369Z,31.07
2018-12-26T21:30:26.959Z,32.95
2018-12-26T21:32:56.667Z,34.90
2018-12-26T21:35:26.457Z,31.12
2018-12-26T21:37:55.984Z,29.45
2018-12-26T21:40:25.386Z,33.55
2018-12-26T21:42:55.005Z,35.50
2018-12-26T21:45:24.898Z,33.40
2018-12-26T21:47:55.949Z,31.68
2018-12-26T21:50:25.457Z,30.55
2018-12-26T21:52:55.732Z,34.58
2018-12-26T21:55:25.385Z,29.57
2018-12-26T21:57:54.891Z,30.43
2018-12-26T22:00:24.393Z,29.57
2018-12-26T22:02:53.899Z,32.25
2018-12-26T22:05:23.404Z,34.63
2018-12-26T22:07:55.775Z,31.12
2018-12-26T22:10:25.357Z,30.92
2018-12-26T22:12:54.886Z,30.45
2018-12-26T22:15:24.598Z,28.05
2018-12-26T22:17:54.205Z,32.65
2018-12-26T22:20:23.916Z,29.72
2018-12-26T22:22:53.500Z,32.25
2018-12-26T22:25:23.029Z,31.95
2018-12-26T22:27:52.529Z,30.77
2018-12-26T22:30:21.990Z,32.13
2018-12-26T22:32:51.649Z,31.12
2018-12-26T22:35:21.452Z,33.83
2018-12-26T22:37:50.956Z,31.87
2018-12-26T22:40:20.666Z,29.65
2018-12-26T22:42:50.069Z,29.10
2018-12-26T22:45:19.575Z,29.95
2018-12-26T22:47:49.078Z,31.02
2018-12-26T22:50:18.582Z,32.05
2018-12-26T22:52:48.189Z,30.00
2018-12-26T22:55:17.698Z,28.73
2018-12-26T22:57:47.484Z,30.85
2018-12-26T23:00:20.310Z,34.35
2018-12-26T23:02:49.794Z,28.52
2018-12-26T23:05:19.297Z,30.30
2018-12-26T23:07:48.803Z,31.00
2018-12-26T23:10:18.281Z,28.32
2018-12-26T23:12:47.811Z,27.48
2018-12-26T23:15:17.328Z,28.85
2018-12-26T23:17:46.721Z,28.27
2018-12-26T23:20:16.123Z,28.65
2018-12-26T23:22:45.636Z,30.00
2018-12-26T23:25:15.027Z,25.85
2018-12-26T23:27:44.633Z,23.83
2018-12-26T23:30:14.616Z,22.58
2018-12-26T23:32:47.236Z,28.87
2018-12-26T23:35:15.707Z,28.42
2018-12-26T23:37:45.316Z,27.35
2018-12-26T23:40:14.966Z,30.60
2018-12-26T23:42:44.430Z,28.75
2018-12-26T23:45:14.247Z,25.88
2018-12-26T23:47:43.744Z,29.70
2018-12-26T23:50:13.353Z,29.00
2018-12-26T23:52:43.777Z,29.55
2018-12-26T23:55:13.796Z,27.10
2018-12-26T23:57:43.305Z,26.07
